LFSL 221130Z AUTO 17004KT 100V220 CAVOK 12/03 Q1033 NOSIG

ElémentsDécodage
LFSL Station météo située sur l'aérodrome de TOUL Rosières
221130Z émis le 22 du mois à 11h30 UTC
AUTO Bulletin édité par un automate
17004KT vent du 170°, 04 noeuds
100V220 vent de direction variable entre 100° et 220°
CAVOK Ceiling And Visibility OK
- Visibilité de 10 Km ou plus
- Pas de nuage au-dessous de 1500m ou au-dessous de l'altitude minimale du secteur la plus élevée (si>1500m) et absence de CB
- pas de temps présent significatif
12/03 température 12°C, point de rosée 03°C
 soit une humidité relative de 54%
Q1033 la pression au niveau de la mer (QNH) est de 1033 hPa
NOSIG Pas de changement significatif prévu au cours des deux heures suivant l'heure de l'observation